Disclaimer

Please do not use the information listed here in-flight or in-navigation, as they are not provided to us by the airports but are provided by volunteers, so they might be outdated.

Search


Regions


Airport information page

Radio informations:
Tower (TWR) - 118.05 MHz
Approach (APP) - 118.05 MHz
RDO - 5637 MHz

Airport informations:
Latitude: 36° 23' 57.01" N
Longitude: 025° 28' 45.60" E
Elevation: 127 feet - 39 meters
Operating hours: Remarks
Operating agency: Civil government, landing fees and diplomatic clearance may be required
Timezone: UTC+2(+3DT) - Last Sunday in March to last Sunday in October
Fuel: JP-8, SemiKeroscene MIL Spec T-83133, without icing inhibitor

Runway information:
16L/34R - 6972 x 98 feet< - >2125 x 30 meters

Recent METARs:
LGSR 151720Z 15013KT 9999 FEW025 16/13 Q1015
LGSR 151750Z 15013KT 9999 FEW025 16/13 Q1015
LGSR 151820Z AUTO 36011KT //// -RA ////// 16/13 Q1015 RE//

Airport on the map: